createdAt,value
2018-12-27T00:01:19.391Z,9.23
2018-12-27T00:03:45.708Z,9.22
2018-12-27T00:06:11.988Z,9.23
2018-12-27T00:08:38.261Z,9.22
2018-12-27T00:11:04.681Z,9.22
2018-12-27T00:13:30.934Z,9.24
2018-12-27T00:15:57.244Z,9.24
2018-12-27T00:18:23.577Z,9.14
2018-12-27T00:20:49.875Z,9.04
2018-12-27T00:23:16.165Z,8.98
2018-12-27T00:25:42.456Z,9.04
2018-12-27T00:28:08.758Z,9.12
2018-12-27T00:30:35.064Z,9.15
2018-12-27T00:33:03.230Z,9.18
2018-12-27T00:35:27.643Z,9.19
2018-12-27T00:37:53.972Z,9.21
2018-12-27T00:40:20.293Z,9.22
2018-12-27T00:42:46.601Z,9.18
2018-12-27T00:45:12.874Z,9.19
2018-12-27T00:47:39.453Z,9.18
2018-12-27T00:50:05.738Z,9.18
2018-12-27T00:52:32.102Z,9.21
2018-12-27T00:54:58.373Z,9.23
2018-12-27T00:57:24.664Z,9.25
2018-12-27T00:59:50.963Z,9.26
2018-12-27T01:02:17.273Z,9.24
2018-12-27T01:04:43.555Z,9.13
2018-12-27T01:07:09.847Z,9.02
2018-12-27T01:09:36.150Z,8.97
2018-12-27T01:12:02.430Z,9.03
2018-12-27T01:14:28.728Z,9.09
2018-12-27T01:16:55.024Z,9.10
2018-12-27T01:19:21.318Z,9.15
2018-12-27T01:21:47.624Z,9.16
2018-12-27T01:24:13.900Z,9.14
2018-12-27T01:26:40.177Z,9.17
2018-12-27T01:29:06.529Z,9.14
2018-12-27T01:31:32.835Z,9.14
2018-12-27T01:33:59.120Z,9.12
2018-12-27T01:36:25.430Z,9.14
2018-12-27T01:38:51.716Z,9.16
2018-12-27T01:41:17.987Z,9.18
2018-12-27T01:43:44.288Z,9.21
2018-12-27T01:46:10.812Z,9.22
2018-12-27T01:48:37.107Z,9.17
2018-12-27T01:51:03.397Z,9.06
2018-12-27T01:53:29.675Z,8.94
2018-12-27T01:55:55.977Z,8.90
2018-12-27T01:58:22.266Z,8.98
2018-12-27T02:00:48.573Z,9.06
2018-12-27T02:03:14.886Z,9.11
2018-12-27T02:05:41.187Z,9.13
2018-12-27T02:08:07.564Z,9.12
2018-12-27T02:10:33.779Z,9.13
2018-12-27T02:13:00.068Z,9.12
2018-12-27T02:15:26.381Z,9.12
2018-12-27T02:17:52.683Z,9.13
2018-12-27T02:20:19.014Z,9.12
2018-12-27T02:22:45.292Z,9.12
2018-12-27T02:25:11.591Z,9.13
2018-12-27T02:27:37.883Z,9.17
2018-12-27T02:30:04.178Z,9.19
2018-12-27T02:32:30.482Z,9.18
2018-12-27T02:34:56.758Z,9.10
2018-12-27T02:37:23.077Z,8.99
2018-12-27T02:39:49.371Z,8.88
2018-12-27T02:42:15.655Z,8.88
2018-12-27T02:44:41.964Z,8.95
2018-12-27T02:47:08.267Z,9.02
2018-12-27T02:49:34.587Z,9.05
2018-12-27T02:52:00.855Z,9.08
2018-12-27T02:54:27.182Z,9.07
2018-12-27T02:56:53.463Z,9.09
2018-12-27T02:59:19.760Z,9.09
2018-12-27T03:01:46.062Z,9.07
2018-12-27T03:04:12.349Z,9.07
2018-12-27T03:06:38.668Z,9.06
2018-12-27T03:09:04.955Z,9.03
2018-12-27T03:11:31.243Z,9.08
2018-12-27T03:13:57.558Z,9.13
2018-12-27T03:16:23.836Z,9.13
2018-12-27T03:18:50.159Z,9.10
2018-12-27T03:21:16.446Z,9.06
2018-12-27T03:23:42.751Z,8.92
2018-12-27T03:26:09.034Z,8.79
2018-12-27T03:28:35.354Z,8.83
2018-12-27T03:31:01.695Z,8.90
2018-12-27T03:33:28.005Z,8.95
2018-12-27T03:35:54.288Z,8.97
2018-12-27T03:38:20.576Z,9.01
2018-12-27T03:40:46.933Z,9.02
2018-12-27T03:43:13.204Z,9.03
2018-12-27T03:45:39.488Z,9.02
2018-12-27T03:48:05.813Z,9.01
2018-12-27T03:50:32.088Z,9.00
2018-12-27T03:52:58.371Z,9.01
2018-12-27T03:55:24.677Z,9.02
2018-12-27T03:57:50.964Z,9.05
2018-12-27T04:00:17.301Z,9.09
2018-12-27T04:02:43.625Z,9.10
2018-12-27T04:05:09.911Z,9.07
2018-12-27T04:07:36.221Z,9.00
2018-12-27T04:10:02.513Z,8.86
2018-12-27T04:12:28.809Z,8.77
2018-12-27T04:14:55.098Z,8.82
2018-12-27T04:17:21.425Z,8.89
2018-12-27T04:19:47.696Z,8.93
2018-12-27T04:22:14.009Z,8.98
2018-12-27T04:24:40.296Z,8.99
2018-12-27T04:27:06.567Z,8.99
2018-12-27T04:29:32.863Z,8.97
2018-12-27T04:31:59.153Z,8.98
2018-12-27T04:34:25.451Z,8.97
2018-12-27T04:36:51.740Z,8.98
2018-12-27T04:39:18.038Z,9.00
2018-12-27T04:41:44.353Z,9.02
2018-12-27T04:44:10.648Z,9.07
2018-12-27T04:46:36.958Z,9.09
2018-12-27T04:49:03.245Z,9.07
2018-12-27T04:51:29.568Z,9.05
2018-12-27T04:53:55.912Z,8.97
2018-12-27T04:56:22.204Z,8.84
2018-12-27T04:58:48.559Z,8.74
2018-12-27T05:01:14.849Z,8.77
2018-12-27T05:03:41.136Z,8.86
2018-12-27T05:06:07.433Z,8.89
2018-12-27T05:08:33.735Z,8.90
2018-12-27T05:11:00.029Z,8.92
2018-12-27T05:13:26.359Z,8.94
2018-12-27T05:15:52.666Z,8.95
2018-12-27T05:18:18.950Z,8.91
2018-12-27T05:20:45.260Z,8.95
2018-12-27T05:23:11.557Z,8.95
2018-12-27T05:25:37.847Z,8.98
2018-12-27T05:28:04.159Z,8.99
2018-12-27T05:30:30.481Z,9.02
2018-12-27T05:32:56.774Z,9.01
2018-12-27T05:35:23.067Z,9.00
2018-12-27T05:37:49.344Z,8.96
2018-12-27T05:40:15.681Z,8.86
2018-12-27T05:42:41.971Z,8.76
2018-12-27T05:45:08.268Z,8.64
2018-12-27T05:47:34.605Z,8.75
2018-12-27T05:50:00.896Z,8.81
2018-12-27T05:52:27.177Z,8.84
2018-12-27T05:54:53.467Z,8.86
2018-12-27T05:57:19.750Z,8.88
2018-12-27T05:59:46.056Z,8.87
2018-12-27T06:02:12.358Z,8.89
2018-12-27T06:04:38.649Z,8.92
2018-12-27T06:07:04.941Z,8.92
2018-12-27T06:09:31.235Z,8.93
2018-12-27T06:11:57.564Z,8.94
2018-12-27T06:14:23.866Z,8.95
2018-12-27T06:16:52.788Z,8.95
2018-12-27T06:19:19.091Z,8.96
2018-12-27T06:21:45.378Z,8.96
2018-12-27T06:24:11.708Z,8.93
2018-12-27T06:26:37.996Z,8.83
2018-12-27T06:29:04.306Z,8.71
2018-12-27T06:31:30.623Z,8.65
2018-12-27T06:33:56.900Z,8.70
2018-12-27T06:36:23.224Z,8.78
2018-12-27T06:38:49.501Z,8.83
2018-12-27T06:41:15.793Z,8.86
2018-12-27T06:43:42.076Z,8.87
2018-12-27T06:46:08.389Z,8.87
2018-12-27T06:48:34.691Z,8.87
2018-12-27T06:51:00.988Z,8.88
2018-12-27T06:53:27.494Z,8.91
2018-12-27T06:55:53.794Z,8.92
2018-12-27T06:58:20.091Z,8.94
2018-12-27T07:00:46.402Z,8.97
2018-12-27T07:03:12.649Z,8.99
2018-12-27T07:05:38.977Z,8.99
2018-12-27T07:08:05.233Z,8.99
2018-12-27T07:10:31.541Z,8.94
2018-12-27T07:12:57.867Z,8.84
2018-12-27T07:15:24.164Z,8.69
2018-12-27T07:17:50.462Z,8.71
2018-12-27T07:20:16.779Z,8.77
2018-12-27T07:22:43.046Z,8.84
2018-12-27T07:25:09.339Z,8.88
2018-12-27T07:27:35.639Z,8.90
2018-12-27T07:30:01.944Z,8.93
2018-12-27T07:32:28.244Z,8.95
2018-12-27T07:34:56.644Z,8.96
2018-12-27T07:37:20.804Z,9.01
2018-12-27T07:39:47.129Z,8.98
2018-12-27T07:42:13.427Z,9.01
2018-12-27T07:44:39.753Z,9.05
2018-12-27T07:47:06.070Z,9.04
2018-12-27T07:49:32.379Z,9.07
2018-12-27T07:51:58.676Z,9.10
2018-12-27T07:54:24.983Z,9.09
2018-12-27T07:56:51.261Z,9.03
2018-12-27T07:59:17.583Z,8.91
2018-12-27T08:01:43.859Z,8.82
2018-12-27T08:04:10.173Z,8.84
2018-12-27T08:06:36.459Z,8.92
2018-12-27T08:09:02.750Z,9.00
2018-12-27T08:11:29.041Z,9.06
2018-12-27T08:13:55.366Z,9.09
2018-12-27T08:16:21.776Z,9.11
2018-12-27T08:18:48.122Z,9.12
2018-12-27T08:21:14.404Z,9.15
2018-12-27T08:23:40.715Z,9.18
2018-12-27T08:26:07.138Z,9.21
2018-12-27T08:28:33.415Z,9.24
2018-12-27T08:30:59.731Z,9.27
2018-12-27T08:33:26.010Z,9.30
2018-12-27T08:35:52.327Z,9.32
2018-12-27T08:38:18.645Z,9.34
2018-12-27T08:40:44.945Z,9.34
2018-12-27T08:43:11.240Z,9.26
2018-12-27T08:45:37.553Z,9.12
2018-12-27T08:48:03.851Z,9.04
2018-12-27T08:50:30.140Z,9.10
2018-12-27T08:52:56.462Z,9.19
2018-12-27T08:55:22.755Z,9.26
2018-12-27T08:57:49.051Z,9.31
2018-12-27T09:00:15.334Z,9.35
2018-12-27T09:02:41.647Z,9.39
2018-12-27T09:05:07.970Z,9.41
2018-12-27T09:07:34.270Z,9.43
2018-12-27T09:10:00.570Z,9.44
2018-12-27T09:12:26.891Z,9.49
2018-12-27T09:14:53.175Z,9.54
2018-12-27T09:17:19.445Z,9.58
2018-12-27T09:19:45.733Z,9.63
2018-12-27T09:22:12.028Z,9.65
2018-12-27T09:24:38.353Z,9.69
2018-12-27T09:27:04.655Z,9.69
2018-12-27T09:29:30.972Z,9.59
2018-12-27T09:31:57.288Z,9.45
2018-12-27T09:34:23.579Z,9.36
2018-12-27T09:36:50.459Z,9.41
2018-12-27T09:39:16.179Z,9.51
2018-12-27T09:41:42.538Z,9.58
2018-12-27T09:44:08.836Z,9.63
2018-12-27T09:46:35.116Z,9.53
2018-12-27T09:49:01.421Z,9.68
2018-12-27T09:51:27.696Z,9.70
2018-12-27T09:53:53.990Z,9.71
2018-12-27T09:56:20.353Z,9.73
2018-12-27T09:58:46.624Z,9.71
2018-12-27T10:01:12.917Z,9.74
2018-12-27T10:03:39.214Z,9.74
2018-12-27T10:06:05.510Z,9.75
2018-12-27T10:08:32.085Z,9.76
2018-12-27T10:10:58.358Z,9.76
2018-12-27T10:13:24.653Z,9.75
2018-12-27T10:15:50.974Z,9.64
2018-12-27T10:18:17.257Z,9.51
2018-12-27T10:20:43.546Z,9.43
2018-12-27T10:23:09.835Z,9.54
2018-12-27T10:25:36.149Z,9.56
2018-12-27T10:28:02.453Z,9.70
2018-12-27T10:30:28.749Z,9.75
2018-12-27T10:32:55.036Z,9.78
2018-12-27T10:35:21.339Z,9.79
2018-12-27T10:37:47.938Z,9.83
2018-12-27T10:40:14.226Z,9.84
2018-12-27T10:42:40.539Z,9.86
2018-12-27T10:45:06.828Z,9.93
2018-12-27T10:47:33.118Z,9.97
2018-12-27T10:49:59.434Z,10.00
2018-12-27T10:52:25.704Z,10.04
2018-12-27T10:54:52.012Z,10.07
2018-12-27T10:57:18.309Z,10.10
2018-12-27T10:59:44.631Z,10.05
2018-12-27T11:02:10.915Z,9.92
2018-12-27T11:04:37.239Z,9.80
2018-12-27T11:07:03.534Z,9.77
2018-12-27T11:09:29.974Z,9.87
2018-12-27T11:11:56.257Z,9.98
2018-12-27T11:14:22.553Z,10.07
2018-12-27T11:16:48.849Z,10.14
2018-12-27T11:19:15.143Z,10.17
2018-12-27T11:21:41.433Z,10.21
2018-12-27T11:24:07.759Z,10.26
2018-12-27T11:26:34.040Z,10.27
2018-12-27T11:29:00.388Z,10.29
2018-12-27T11:31:26.712Z,10.28
2018-12-27T11:33:53.126Z,10.24
2018-12-27T11:36:19.407Z,10.25
2018-12-27T11:38:45.677Z,10.24
2018-12-27T11:41:11.953Z,10.23
2018-12-27T11:43:38.286Z,10.23
2018-12-27T11:46:04.549Z,10.18
2018-12-27T11:48:30.879Z,10.05
2018-12-27T11:50:57.653Z,9.95
2018-12-27T11:53:23.939Z,9.93
2018-12-27T11:55:50.231Z,10.03
2018-12-27T11:58:16.529Z,10.13
2018-12-27T12:00:42.850Z,10.24
2018-12-27T12:03:09.149Z,10.29
2018-12-27T12:05:35.473Z,10.28
2018-12-27T12:08:01.790Z,10.31
2018-12-27T12:10:28.071Z,10.33
2018-12-27T12:12:54.402Z,10.34
2018-12-27T12:15:20.778Z,10.34
2018-12-27T12:17:47.113Z,10.32
2018-12-27T12:20:13.435Z,10.32
2018-12-27T12:22:39.804Z,10.32
2018-12-27T12:25:06.087Z,10.33
2018-12-27T12:27:32.419Z,10.33
2018-12-27T12:29:58.692Z,10.33
2018-12-27T12:32:24.977Z,10.26
2018-12-27T12:34:51.290Z,10.12
2018-12-27T12:37:17.604Z,10.02
2018-12-27T12:39:43.894Z,10.01
2018-12-27T12:42:10.218Z,10.10
2018-12-27T12:44:36.547Z,10.18
2018-12-27T12:47:02.849Z,10.24
2018-12-27T12:49:29.131Z,10.28
2018-12-27T12:51:55.472Z,10.31
2018-12-27T12:54:21.792Z,10.30
2018-12-27T12:56:48.119Z,10.31
2018-12-27T12:59:14.376Z,10.31
2018-12-27T13:01:40.653Z,10.28
2018-12-27T13:04:06.992Z,10.24
2018-12-27T13:06:33.247Z,10.22
2018-12-27T13:08:59.542Z,10.20
2018-12-27T13:11:25.830Z,10.14
2018-12-27T13:13:52.158Z,10.17
2018-12-27T13:16:18.454Z,10.17
2018-12-27T13:18:47.494Z,10.04
2018-12-27T13:21:11.054Z,9.91
2018-12-27T13:23:37.361Z,9.81
2018-12-27T13:26:03.640Z,9.84
2018-12-27T13:28:29.919Z,9.91
2018-12-27T13:30:56.227Z,9.96
2018-12-27T13:33:22.529Z,10.00
2018-12-27T13:35:48.839Z,10.03
2018-12-27T13:38:15.130Z,10.05
2018-12-27T13:40:41.420Z,10.05
2018-12-27T13:43:07.703Z,10.06
2018-12-27T13:45:34.018Z,10.05
2018-12-27T13:48:00.316Z,10.04
2018-12-27T13:50:26.624Z,10.01
2018-12-27T13:52:52.936Z,9.97
2018-12-27T13:55:19.226Z,9.96
2018-12-27T13:57:45.506Z,9.97
2018-12-27T14:00:11.866Z,9.96
2018-12-27T14:02:38.128Z,9.93
2018-12-27T14:05:04.420Z,9.82
2018-12-27T14:07:30.706Z,9.70
2018-12-27T14:09:57.019Z,9.63
2018-12-27T14:12:23.397Z,9.66
2018-12-27T14:14:49.634Z,9.74
2018-12-27T14:17:15.924Z,9.80
2018-12-27T14:19:42.209Z,9.82
2018-12-27T14:22:08.552Z,9.83
2018-12-27T14:24:34.845Z,9.83
2018-12-27T14:27:01.385Z,9.82
2018-12-27T14:29:27.429Z,9.82
2018-12-27T14:31:53.731Z,9.82
2018-12-27T14:34:20.055Z,9.82
2018-12-27T14:36:46.325Z,9.80
2018-12-27T14:39:12.656Z,9.78
2018-12-27T14:41:38.924Z,9.77
2018-12-27T14:44:05.492Z,9.76
2018-12-27T14:46:31.699Z,9.77
2018-12-27T14:48:57.995Z,9.77
2018-12-27T14:51:24.290Z,9.67
2018-12-27T14:53:50.587Z,9.55
2018-12-27T14:56:16.906Z,9.48
2018-12-27T14:58:43.200Z,9.49
2018-12-27T15:01:09.481Z,9.55
2018-12-27T15:03:35.770Z,9.59
2018-12-27T15:06:02.045Z,9.61
2018-12-27T15:08:28.343Z,9.61
2018-12-27T15:10:54.651Z,9.59
2018-12-27T15:13:20.967Z,9.60
2018-12-27T15:15:47.267Z,9.59
2018-12-27T15:18:13.541Z,9.60
2018-12-27T15:20:39.875Z,9.61
2018-12-27T15:23:06.162Z,9.59
2018-12-27T15:25:32.449Z,9.59
2018-12-27T15:27:58.765Z,9.59
2018-12-27T15:30:25.104Z,9.61
2018-12-27T15:32:51.386Z,9.61
2018-12-27T15:35:17.698Z,9.57
2018-12-27T15:37:43.975Z,9.48
2018-12-27T15:40:10.297Z,9.36
2018-12-27T15:42:36.637Z,9.31
2018-12-27T15:45:02.906Z,9.35
2018-12-27T15:47:29.184Z,9.39
2018-12-27T15:49:55.465Z,9.43
2018-12-27T15:52:21.797Z,9.46
2018-12-27T15:54:48.077Z,9.46
2018-12-27T15:57:14.395Z,9.45
2018-12-27T15:59:40.689Z,9.47
2018-12-27T16:02:06.992Z,9.49
2018-12-27T16:04:33.279Z,9.47
2018-12-27T16:07:02.040Z,9.47
2018-12-27T16:09:26.125Z,9.48
2018-12-27T16:11:52.441Z,9.49
2018-12-27T16:14:19.106Z,9.47
2018-12-27T16:16:45.391Z,9.51
2018-12-27T16:19:11.678Z,9.52
2018-12-27T16:21:37.976Z,9.48
2018-12-27T16:24:04.287Z,9.39
2018-12-27T16:26:30.580Z,9.29
2018-12-27T16:28:56.866Z,9.24
2018-12-27T16:31:23.214Z,9.28
2018-12-27T16:33:49.493Z,9.33
2018-12-27T16:36:15.805Z,9.36
2018-12-27T16:38:42.103Z,9.36
2018-12-27T16:41:08.359Z,9.36
2018-12-27T16:43:34.710Z,9.38
2018-12-27T16:46:00.992Z,9.37
2018-12-27T16:48:27.394Z,9.38
2018-12-27T16:50:53.662Z,9.37
2018-12-27T16:53:19.933Z,9.37
2018-12-27T16:55:46.288Z,9.34
2018-12-27T16:58:12.545Z,9.39
2018-12-27T17:00:38.830Z,9.42
2018-12-27T17:03:05.128Z,9.44
2018-12-27T17:05:31.403Z,9.43
2018-12-27T17:07:57.716Z,9.39
2018-12-27T17:11:22.689Z,9.30
2018-12-27T17:13:00.999Z,9.20
2018-12-27T17:15:27.278Z,9.19
2018-12-27T17:17:53.557Z,9.24
2018-12-27T17:20:20.109Z,9.28
2018-12-27T17:22:49.961Z,9.31
2018-12-27T17:25:16.196Z,9.33
2018-12-27T17:27:42.662Z,9.34
2018-12-27T17:30:24.216Z,9.34
2018-12-27T17:32:50.502Z,9.33
2018-12-27T17:35:16.793Z,9.35
2018-12-27T17:37:51.068Z,9.34
2018-12-27T17:40:17.401Z,9.37
2018-12-27T17:42:43.781Z,9.37
2018-12-27T17:45:09.999Z,9.39
2018-12-27T17:47:36.292Z,9.41
2018-12-27T17:50:02.583Z,9.40
2018-12-27T17:52:30.349Z,9.38
2018-12-27T17:54:55.186Z,9.33
2018-12-27T17:57:21.478Z,9.24
2018-12-27T17:59:47.775Z,9.14
2018-12-27T18:02:14.127Z,9.17
2018-12-27T18:04:40.403Z,9.22
2018-12-27T18:07:06.703Z,9.27
2018-12-27T18:09:32.983Z,9.28
2018-12-27T18:11:59.285Z,9.31
2018-12-27T18:14:25.573Z,9.30
2018-12-27T18:16:51.916Z,9.32
2018-12-27T18:19:18.216Z,9.33
2018-12-27T18:21:44.501Z,9.32
2018-12-27T18:24:10.975Z,9.33
2018-12-27T18:26:37.239Z,9.34
2018-12-27T18:29:03.519Z,9.36
2018-12-27T18:31:29.812Z,9.39
2018-12-27T18:33:56.102Z,9.40
2018-12-27T18:36:22.394Z,9.39
2018-12-27T18:38:48.673Z,9.37
2018-12-27T18:41:15.013Z,9.28
2018-12-27T18:43:41.288Z,9.18
2018-12-27T18:46:07.574Z,9.11
2018-12-27T18:48:33.885Z,9.16
2018-12-27T18:51:00.159Z,9.22
2018-12-27T18:53:26.477Z,9.26
2018-12-27T18:55:52.769Z,9.29
2018-12-27T18:58:19.054Z,9.31
2018-12-27T19:00:45.391Z,9.31
2018-12-27T19:03:11.682Z,9.31
2018-12-27T19:05:37.995Z,9.29
2018-12-27T19:08:04.591Z,9.31
2018-12-27T19:10:30.903Z,9.33
2018-12-27T19:12:57.193Z,9.30
2018-12-27T19:15:25.836Z,9.33
2018-12-27T19:17:52.165Z,9.35
2018-12-27T19:20:18.470Z,9.37
2018-12-27T19:22:44.752Z,9.36
2018-12-27T19:25:11.055Z,9.35
2018-12-27T19:27:37.388Z,9.27
2018-12-27T19:30:03.686Z,9.18
2018-12-27T19:32:30.010Z,9.11
2018-12-27T19:34:56.313Z,9.15
2018-12-27T19:37:22.937Z,9.22
2018-12-27T19:39:49.212Z,9.25
2018-12-27T19:42:15.507Z,9.26
2018-12-27T19:44:41.812Z,9.30
2018-12-27T19:47:08.100Z,9.62
2018-12-27T19:49:34.390Z,10.23
2018-12-27T19:52:00.679Z,10.14
2018-12-27T19:54:31.881Z,9.90
2018-12-27T19:56:53.594Z,9.71
2018-12-27T19:59:19.903Z,9.55
2018-12-27T20:01:46.190Z,9.45
2018-12-27T20:04:12.495Z,9.38
2018-12-27T20:06:39.140Z,9.32
2018-12-27T20:09:05.456Z,9.29
2018-12-27T20:11:31.726Z,9.26
2018-12-27T20:13:58.023Z,9.23
2018-12-27T20:16:24.397Z,9.20
2018-12-27T20:21:35.971Z,9.14
2018-12-27T20:24:02.321Z,9.12
2018-12-27T20:26:28.617Z,9.09
2018-12-27T20:28:54.952Z,9.07
2018-12-27T20:31:21.256Z,9.06
2018-12-27T20:33:47.539Z,9.03
2018-12-27T20:36:13.842Z,9.01
2018-12-27T20:38:40.110Z,8.96
2018-12-27T20:41:06.415Z,8.97
2018-12-27T20:43:32.692Z,8.96
2018-12-27T20:45:59.018Z,8.96
2018-12-27T20:48:25.320Z,8.94
2018-12-27T20:50:51.619Z,8.93
2018-12-27T20:53:17.956Z,8.92
2018-12-27T20:55:44.261Z,8.90
2018-12-27T20:58:10.745Z,8.89
2018-12-27T21:00:37.092Z,8.87
2018-12-27T21:03:03.414Z,8.86
2018-12-27T21:05:29.693Z,8.85
2018-12-27T21:07:55.971Z,8.84
2018-12-27T21:10:22.261Z,8.81
2018-12-27T21:12:48.603Z,8.82
2018-12-27T21:15:14.843Z,8.82
2018-12-27T21:17:41.193Z,8.82
2018-12-27T21:20:07.439Z,8.82
2018-12-27T21:22:33.780Z,8.81
2018-12-27T21:25:00.219Z,8.81
2018-12-27T21:27:26.499Z,8.79
2018-12-27T21:29:52.776Z,8.80
2018-12-27T21:32:19.076Z,8.77
2018-12-27T21:34:45.357Z,8.69
2018-12-27T21:37:11.633Z,8.75
2018-12-27T21:39:37.963Z,8.74
2018-12-27T21:42:04.254Z,8.73
2018-12-27T21:44:30.547Z,8.70
2018-12-27T21:46:56.858Z,8.69
2018-12-27T21:49:23.138Z,8.66
2018-12-27T21:51:49.466Z,8.67
2018-12-27T21:54:15.791Z,8.66
2018-12-27T21:56:42.039Z,8.61
2018-12-27T21:59:08.311Z,8.65
2018-12-27T22:01:34.595Z,8.65
2018-12-27T22:04:00.876Z,8.64
2018-12-27T22:06:27.184Z,8.63
2018-12-27T22:08:53.606Z,8.60
2018-12-27T22:11:19.922Z,8.59
2018-12-27T22:13:46.291Z,8.58
2018-12-27T22:16:12.529Z,8.58
2018-12-27T22:18:38.827Z,8.58
2018-12-27T22:21:05.137Z,8.58
2018-12-27T22:23:31.612Z,8.57
2018-12-27T22:25:57.848Z,8.56
2018-12-27T22:28:24.135Z,8.55
2018-12-27T22:30:50.426Z,8.54
2018-12-27T22:33:16.728Z,8.53
2018-12-27T22:35:43.017Z,8.50
2018-12-27T22:38:09.319Z,8.52
2018-12-27T22:40:35.626Z,8.52
2018-12-27T22:43:01.914Z,8.52
2018-12-27T22:45:30.902Z,8.52
2018-12-27T22:47:57.179Z,8.52
2018-12-27T22:50:23.501Z,8.51
2018-12-27T22:52:49.780Z,8.50
2018-12-27T22:55:16.069Z,8.52
2018-12-27T22:57:42.355Z,8.50
2018-12-27T23:00:08.642Z,8.49
2018-12-27T23:02:34.961Z,8.49
2018-12-27T23:05:01.253Z,8.49
2018-12-27T23:07:28.064Z,8.49
2018-12-27T23:09:54.412Z,8.48
2018-12-27T23:12:20.668Z,8.48
2018-12-27T23:14:46.956Z,8.48
2018-12-27T23:17:13.233Z,8.46
2018-12-27T23:19:39.578Z,8.47
2018-12-27T23:22:05.949Z,8.47
2018-12-27T23:24:32.225Z,8.46
2018-12-27T23:26:58.508Z,8.46
2018-12-27T23:29:24.814Z,8.45
2018-12-27T23:31:51.115Z,8.45
2018-12-27T23:34:17.424Z,8.44
2018-12-27T23:36:43.725Z,8.44
2018-12-27T23:39:10.015Z,8.31
2018-12-27T23:41:36.314Z,8.42
2018-12-27T23:44:02.605Z,8.41
2018-12-27T23:46:28.918Z,8.40
2018-12-27T23:48:55.190Z,8.40
2018-12-27T23:51:21.477Z,8.40
2018-12-27T23:53:47.770Z,8.38
2018-12-27T23:56:14.051Z,8.39
2018-12-27T23:58:40.336Z,8.38
